Box Kingfish — A8YW9 — position and weather

sailwx.info

Track history (hours):
 
Tides and Currents Weather Stations Pressure Air Temp Water Temp Dewpoint Dewpoint Depression Visibility Wind Speed Wind Dir Waves Ship Positions

Box Kingfish

Last reported at 2016-Sep-13 02:33 UTC. Time now 2016-Sep-28 01:52 UTC.
Position N 22°24' E 113°53'.
Warning: this ship's position is 14 days out of date.

Length 294 m; draft 7.8 m.

Type: Cargo ship. MMSI: 636015147.

Date/timePositionNaut miles runAvg speedWind from/ knotsBaromVisibWave heightAir tempDewpointWater temp
2016-Sep-13 02:33N 22°24' E 113°53'  
2016-Sep-08 18:32N 01°15' E 103°57'3 2.6
2016-Sep-08 17:33N 01°17' E 103°55'0 0.0
2016-Sep-08 15:33N 01°17' E 103°55'0 0.1
2016-Sep-08 14:33N 01°17' E 103°55'0 0.1
2016-Sep-08 12:24N 01°17' E 103°55'0 0.0
2016-Sep-08 11:33N 01°17' E 103°55'0 0.1
2016-Sep-08 10:33N 01°17' E 103°55'4 3.9
2016-Sep-08 09:27N 01°13' E 103°52'6 6.7
2016-Sep-08 08:33N 01°15' E 103°47'0 0.1
2016-Sep-08 07:19N 01°15' E 103°47'0 0.0
2016-Sep-08 06:25N 01°16' E 103°47'0 0.0
2016-Sep-08 04:19N 01°15' E 103°47'0 0.3
2016-Sep-08 02:33N 01°15' E 103°46'4 4.2
2016-Sep-08 01:33N 01°14' E 103°42'8210.2
2016-Sep-07 17:31N 01°47' E 102°27'  
Track history (hours):
 
Tides and Currents Weather Stations Pressure Air Temp Water Temp Dewpoint Dewpoint Depression Visibility Wind Speed Wind Dir Waves Ship Positions

Box Kingfish

Last reported at 2016-Sep-13 02:33 UTC. Time now 2016-Sep-28 01:52 UTC.
Position N 22°24' E 113°53'.
Warning: this ship's position is 14 days out of date.

Length 294 m; draft 7.8 m.

Type: Cargo ship. MMSI: 636015147.

Date/timePositionNaut miles runAvg speedWind from/ knotsBaromVisibWave heightAir tempDewpointWater temp
2016-Sep-13 02:33N 22°24' E 113°53'  
2016-Sep-08 18:32N 01°15' E 103°57'3 2.6
2016-Sep-08 17:33N 01°17' E 103°55'0 0.0
2016-Sep-08 15:33N 01°17' E 103°55'0 0.1
2016-Sep-08 14:33N 01°17' E 103°55'0 0.1
2016-Sep-08 12:24N 01°17' E 103°55'0 0.0
2016-Sep-08 11:33N 01°17' E 103°55'0 0.1
2016-Sep-08 10:33N 01°17' E 103°55'4 3.9
2016-Sep-08 09:27N 01°13' E 103°52'6 6.7
2016-Sep-08 08:33N 01°15' E 103°47'0 0.1
2016-Sep-08 07:19N 01°15' E 103°47'0 0.0
2016-Sep-08 06:25N 01°16' E 103°47'0 0.0
2016-Sep-08 04:19N 01°15' E 103°47'0 0.3
2016-Sep-08 02:33N 01°15' E 103°46'4 4.2
2016-Sep-08 01:33N 01°14' E 103°42'8210.2
2016-Sep-07 17:31N 01°47' E 102°27'  

Dump ship's entire track history